Time;durP1;ratioP1;P1;durP2;ratioP2;P2;SDS_P1;SDS_P2;PMS_P1;PMS_P2;Temp;Humidity;BMP_temperature;BMP_pressure;BME280_temperature;BME280_humidity;BME280_pressure;Samples;Min_cycle;Max_cycle;Signal;HPM_P1;HPM_P2
2023/07/09 09:34:23;;;;;;;;;8.00;7.00;;;;;25.79;48.19;101551.31;4127750;26;45849;-91
2023/07/09 09:36:49;;;;;;;;;8.33;7.33;;;;;25.77;49.17;101550.63;4883544;29;45375;-92
2023/07/09 09:39:16;;;;;;;;;8.00;8.00;;;;;25.77;49.48;101588.75;4882752;29;45286;-91
2023/07/09 09:41:44;;;;;;;;;8.00;6.67;;;;;25.72;49.47;101606.97;4884149;29;45519;-92
2023/07/09 09:44:23;;;;;;;;;7.00;6.00;;;;;25.76;48.66;101632.41;4881181;29;47649;-91
2023/07/09 09:46:52;;;;;;;;;8.00;7.00;;;;;25.69;48.90;101629.41;4881321;29;45529;-91
2023/07/09 09:49:18;;;;;;;;;8.00;7.00;;;;;25.77;49.26;101649.25;4865703;29;45352;-91
2023/07/09 09:51:46;;;;;;;;;8.00;7.00;;;;;25.78;49.77;101654.41;4864012;29;45633;-90
2023/07/09 09:54:26;;;;;;;;;7.00;7.00;;;;;25.78;49.42;101677.59;4863186;29;47125;-89
2023/07/09 09:56:53;;;;;;;;;7.33;6.00;;;;;25.76;49.54;101680.38;4878226;29;45408;-92
2023/07/09 09:59:24;;;;;;;;;8.67;8.67;;;;;25.79;49.46;101703.25;4879298;29;45580;-90
2023/07/09 10:01:57;;;;;;;;;7.67;7.33;;;;;25.83;48.82;101729.50;4862268;29;45560;-91
2023/07/09 10:04:23;;;;;;;;;6.33;6.00;;;;;25.79;49.16;101729.91;4879539;29;46600;-90
2023/07/09 10:07:03;;;;;;;;;10.67;8.33;;;;;25.83;49.49;101744.69;4856788;29;45557;-90
2023/07/09 10:09:34;;;;;;;;;8.00;7.33;;;;;25.85;49.08;101754.22;4863180;29;45293;-91
2023/07/09 10:12:29;;;;;;;;;8.33;7.00;;;;;25.85;48.98;101737.38;4859137;29;45582;-90
2023/07/09 10:15:16;;;;;;;;;9.33;8.33;;;;;25.85;49.31;101695.59;4875089;29;47091;-90
2023/07/09 10:18:03;;;;;;;;;31.25;27.00;;;;;25.84;49.29;101671.72;4870904;29;45413;-91
2023/07/09 10:20:31;;;;;;;;;21.50;21.50;;;;;25.91;50.87;101653.38;4876577;29;45636;-92
2023/07/09 10:23:15;;;;;;;;;17.33;16.00;;;;;25.94;50.27;101616.63;4876721;29;45368;-91
2023/07/09 10:25:46;;;;;;;;;16.25;16.25;;;;;25.98;50.99;101611.84;4873850;29;48375;-90
2023/07/09 10:28:21;;;;;;;;;21.00;20.00;;;;;26.02;50.93;101608.75;4873449;29;45593;-91
2023/07/09 10:30:55;;;;;;;;;15.00;15.00;;;;;26.10;51.00;101593.94;4879604;29;45564;-90
2023/07/09 10:33:40;;;;;;;;;15.67;12.33;;;;;26.17;50.86;101578.19;4873173;29;45847;-90
2023/07/09 10:36:24;;;;;;;;;10.33;9.33;;;;;26.26;50.79;101572.94;4877033;29;46859;-90
2023/07/09 10:39:02;;;;;;;;;14.00;14.00;;;;;26.32;50.30;101576.00;4878882;29;45322;-91
2023/07/09 10:41:29;;;;;;;;;11.00;11.00;;;;;26.37;50.55;101603.09;4881117;29;45475;-89
2023/07/09 10:44:05;;;;;;;;;9.33;9.33;;;;;26.30;50.29;101600.16;4875116;29;45420;-90
2023/07/09 10:46:34;;;;;;;;;10.00;10.00;;;;;26.41;49.78;101624.06;4869617;29;47098;-91
2023/07/09 10:49:04;;;;;;;;;15.33;13.67;;;;;26.41;49.91;101633.88;4881129;29;45665;-91
2023/07/09 10:51:36;;;;;;;;;10.33;9.67;;;;;26.53;49.60;101634.59;4881950;29;45364;-91
2023/07/09 10:54:20;;;;;;;;;12.00;11.33;;;;;26.68;49.49;101632.34;4879250;29;45617;-91
2023/07/09 10:56:51;;;;;;;;;8.33;6.67;;;;;26.83;49.45;101638.09;4881293;29;45531;-91
2023/07/09 10:59:26;;;;;;;;;7.67;7.33;;;;;26.95;49.43;101628.16;4879072;29;45325;-89
2023/07/09 11:01:57;;;;;;;;;16.00;15.00;;;;;27.10;49.11;101625.03;4879181;29;45570;-91
2023/07/09 11:04:41;;;;;;;;;15.50;14.75;;;;;27.32;48.90;101630.03;4881279;29;45357;-90
2023/07/09 11:07:12;;;;;;;;;35.50;32.75;;;;;27.53;48.57;101634.34;4879401;29;47087;-89
2023/07/09 11:09:46;;;;;;;;;58.25;47.75;;;;;27.85;47.78;101632.28;4879607;29;45398;-90
2023/07/09 11:12:18;;;;;;;;;27.75;25.75;;;;;28.10;47.56;101627.25;4878497;29;46097;-90
2023/07/09 11:14:53;;;;;;;;;15.33;15.33;;;;;28.35;46.99;101627.53;4876361;29;45507;-90
2023/07/09 11:17:21;;;;;;;;;15.00;14.33;;;;;28.59;46.62;101629.59;4877195;29;45542;-91
2023/07/09 11:19:53;;;;;;;;;11.00;10.67;;;;;28.78;46.49;101617.03;4879855;29;45415;-91
2023/07/09 11:22:35;;;;;;;;;9.33;9.33;;;;;29.01;45.35;101611.25;4880454;29;45502;-91
2023/07/09 11:25:12;;;;;;;;;8.33;8.33;;;;;29.22;45.39;101602.84;4881238;29;45462;-91
2023/07/09 11:28:03;;;;;;;;;12.00;12.00;;;;;29.37;44.83;101592.34;4877583;29;46810;-90
2023/07/09 11:30:29;;;;;;;;;7.33;7.33;;;;;29.64;44.36;101598.56;4863626;29;46323;-90
2023/07/09 11:33:04;;;;;;;;;6.33;5.67;;;;;29.92;44.04;101589.41;4866484;29;45467;-89
2023/07/09 11:35:46;;;;;;;;;10.67;8.33;;;;;30.13;43.37;101586.34;4862666;29;45420;-90
2023/07/09 11:38:21;;;;;;;;;30.25;28.75;;;;;30.37;43.21;101587.38;4876361;29;47982;-90
2023/07/09 11:40:53;;;;;;;;;11.67;11.67;;;;;30.61;43.23;101589.22;4872803;29;45663;-91
2023/07/09 11:43:29;;;;;;;;;54.25;44.25;;;;;30.80;42.28;101589.91;4879661;29;46023;-91
2023/07/09 11:45:59;;;;;;;;;29.00;26.50;;;;;30.78;41.40;101560.53;4872714;29;45252;-90
2023/07/09 11:48:24;;;;;;;;;16.00;15.25;;;;;31.11;42.37;101572.22;4874522;29;45462;-90
2023/07/09 11:50:52;;;;;;;;;9.00;9.00;;;;;31.28;41.23;101581.94;4860145;29;45482;-90
2023/07/09 11:53:47;;;;;;;;;14.00;14.00;;;;;31.46;40.93;101575.50;4875803;29;46908;-90
2023/07/09 11:56:13;;;;;;;;;12.00;10.67;;;;;31.63;40.97;101570.03;4864324;29;45529;-89
2023/07/09 11:58:54;;;;;;;;;13.67;13.33;;;;;31.79;39.85;101563.75;4875482;29;47743;-89
2023/07/09 12:01:32;;;;;;;;;13.33;12.67;;;;;31.89;40.72;101567.09;4892830;29;46320;-90
2023/07/09 12:03:57;;;;;;;;;9.00;8.00;;;;;32.02;39.94;101563.81;4878370;29;45541;-89
2023/07/09 12:06:27;;;;;;;;;6.67;6.67;;;;;32.17;39.70;101566.59;4877313;29;45354;-89
2023/07/09 12:08:53;;;;;;;;;7.00;7.00;;;;;32.21;39.57;101549.03;4878469;29;46873;-90
2023/07/09 12:11:19;;;;;;;;;6.00;6.00;;;;;32.42;39.12;101552.09;4880718;29;45657;-89
2023/07/09 12:13:44;;;;;;;;;7.67;7.67;;;;;32.45;38.91;101538.28;4880541;29;45396;-89
2023/07/09 12:16:36;;;;;;;;;7.00;5.33;;;;;32.67;38.69;101552.72;4880124;29;45589;-91
2023/07/09 12:19:01;;;;;;;;;9.67;7.33;;;;;32.71;38.54;101543.25;4867498;29;46932;-90
2023/07/09 12:21:27;;;;;;;;;8.00;7.67;;;;;32.83;38.20;101548.19;4886743;29;45453;-91
2023/07/09 12:23:55;;;;;;;;;8.33;6.00;;;;;32.97;38.09;101555.50;4883976;29;45374;-90
2023/07/09 12:26:21;;;;;;;;;7.67;7.33;;;;;32.98;37.79;101550.91;4880481;29;45661;-90
2023/07/09 12:28:54;;;;;;;;;8.00;8.00;;;;;33.03;37.94;101548.50;4880306;29;48105;-89
2023/07/09 12:31:25;;;;;;;;;6.67;6.67;;;;;33.13;38.09;101542.84;4881470;29;45378;-91
2023/07/09 12:33:53;;;;;;;;;10.25;7.50;;;;;33.20;38.09;101554.56;4881169;29;45386;-90
2023/07/09 12:36:20;;;;;;;;;19.00;18.50;;;;;33.28;37.82;101564.41;4881476;29;45622;-90
2023/07/09 12:38:48;;;;;;;;;23.00;22.50;;;;;33.34;37.39;101577.13;4878931;29;46901;-89
2023/07/09 12:41:22;;;;;;;;;24.00;21.00;;;;;33.43;37.30;101572.47;4881879;29;45424;-90
2023/07/09 12:43:49;;;;;;;;;17.25;14.75;;;;;33.50;37.63;101575.28;4895601;29;45482;-90
2023/07/09 12:46:14;;;;;;;;;25.75;22.25;;;;;33.52;37.33;101576.78;4882108;29;45381;-89
2023/07/09 12:48:40;;;;;;;;;25.25;25.00;;;;;33.53;36.83;101572.22;4881880;29;45382;-90
2023/07/09 12:51:08;;;;;;;;;13.75;12.50;;;;;33.53;36.92;101572.22;4880815;29;45311;-89
2023/07/09 12:53:36;;;;;;;;;20.50;17.00;;;;;33.56;36.74;101569.97;4879283;29;45376;-89
2023/07/09 12:56:01;;;;;;;;;15.50;15.50;;;;;33.51;36.43;101566.16;4880979;29;45421;-90
2023/07/09 12:58:35;;;;;;;;;15.00;15.00;;;;;33.47;36.76;101571.09;4881868;29;45397;-90
2023/07/09 13:01:06;;;;;;;;;33.00;30.50;;;;;33.44;36.15;101585.78;4881059;29;45413;-89
2023/07/09 13:03:33;;;;;;;;;23.00;23.00;;;;;33.31;36.05;101580.19;4881647;29;45385;-90
2023/07/09 13:06:25;;;;;;;;;18.25;18.25;;;;;33.21;35.95;101583.19;4901472;29;45597;-89
2023/07/09 13:08:56;;;;;;;;;25.50;25.50;;;;;33.11;36.49;101577.22;4900361;28;47110;-90
2023/07/09 13:11:22;;;;;;;;;30.25;28.50;;;;;33.05;36.19;101573.44;4886218;29;45515;-89
2023/07/09 13:14:14;;;;;;;;;33.75;31.25;;;;;32.95;36.13;101570.97;4881764;29;45419;-90
2023/07/09 13:16:40;;;;;;;;;32.75;28.00;;;;;32.86;36.59;101575.59;4882664;29;45437;-89
2023/07/09 13:19:05;;;;;;;;;52.00;42.50;;;;;32.77;36.67;101571.31;4880225;29;46000;-89
2023/07/09 13:21:31;;;;;;;;;20.50;19.75;;;;;32.72;36.32;101574.56;4878428;29;45597;-89
2023/07/09 13:23:56;;;;;;;;;31.00;28.50;;;;;32.72;36.36;101573.72;4881693;29;45375;-89
2023/07/09 13:26:21;;;;;;;;;19.00;18.75;;;;;32.74;37.08;101575.22;4881951;29;45344;-89
2023/07/09 13:28:47;;;;;;;;;28.25;27.00;;;;;32.73;36.71;101568.16;4896206;29;48191;-89
2023/07/09 13:31:15;;;;;;;;;23.25;22.25;;;;;32.64;36.37;101548.53;4881370;29;45547;-89
2023/07/09 13:33:49;;;;;;;;;15.00;14.25;;;;;32.76;36.34;101570.47;4882029;29;45443;-90
2023/07/09 13:36:15;;;;;;;;;31.75;29.50;;;;;32.83;36.60;101567.91;4882587;29;45486;-90
2023/07/09 13:38:41;;;;;;;;;17.50;17.50;;;;;32.87;36.07;101563.81;4878781;29;46293;-89
2023/07/09 13:41:16;;;;;;;;;10.75;10.75;;;;;33.00;36.24;101565.88;4880058;29;45391;-89
2023/07/09 13:43:47;;;;;;;;;8.75;7.50;;;;;33.14;36.39;101568.78;4879485;29;45384;-90
2023/07/09 13:46:14;;;;;;;;;11.00;11.00;;;;;33.21;36.22;101567.00;4880176;29;45376;-89
2023/07/09 13:48:41;;;;;;;;;9.67;8.00;;;;;33.25;35.89;101562.91;4879935;29;45613;-89
2023/07/09 13:51:20;;;;;;;;;49.00;41.00;;;;;33.26;35.67;101555.66;4896818;29;45472;-89
2023/07/09 13:53:46;;;;;;;;;51.75;43.75;;;;;33.30;35.68;101563.19;4877804;29;46449;-89
2023/07/09 13:56:11;;;;;;;;;23.50;23.50;;;;;33.27;35.84;101549.25;4877749;29;45537;-89
2023/07/09 13:58:37;;;;;;;;;20.25;20.25;;;;;33.37;35.33;101565.16;4880162;29;47425;-89
2023/07/09 14:01:13;;;;;;;;;17.25;15.00;;;;;33.42;35.77;101565.41;4880996;29;45337;-89
2023/07/09 14:03:38;;;;;;;;;8.33;8.33;;;;;33.47;35.98;101563.00;4878306;29;45390;-89
2023/07/09 14:06:04;;;;;;;;;13.67;12.00;;;;;33.53;35.92;101567.66;4879645;29;46242;-89
2023/07/09 14:08:29;;;;;;;;;16.25;15.75;;;;;33.52;35.45;101555.22;4883024;29;47074;-90
2023/07/09 14:10:55;;;;;;;;;13.00;13.00;;;;;33.56;35.10;101553.78;4879672;29;45493;-90
2023/07/09 14:13:24;;;;;;;;;25.25;25.25;;;;;33.62;35.38;101568.38;4881125;29;45348;-89
2023/07/09 14:15:49;;;;;;;;;10.33;10.33;;;;;33.61;34.95;101555.09;4880842;29;45315;-89
2023/07/09 14:18:24;;;;;;;;;11.00;11.00;;;;;33.70;35.02;101564.75;4881346;29;45485;-90
2023/07/09 14:20:50;;;;;;;;;12.00;11.25;;;;;33.75;35.13;101564.16;4880161;29;45416;-89
2023/07/09 14:23:17;;;;;;;;;11.50;10.00;;;;;33.81;34.75;101566.09;4874989;29;45313;-89
2023/07/09 14:25:43;;;;;;;;;10.25;7.50;;;;;33.83;35.21;101561.38;4879197;29;45604;-89
2023/07/09 14:28:17;;;;;;;;;8.25;7.75;;;;;33.89;34.53;101573.25;4879156;29;47218;-90
2023/07/09 14:30:45;;;;;;;;;7.00;7.00;;;;;33.95;35.04;101575.19;4878920;29;45425;-89
2023/07/09 14:33:16;;;;;;;;;8.25;7.00;;;;;34.01;34.73;101565.47;4879219;29;45518;-92
2023/07/09 14:35:43;;;;;;;;;6.25;6.00;;;;;34.04;34.58;101571.34;4879963;29;45520;-91
2023/07/09 14:38:21;;;;;;;;;7.33;7.33;;;;;34.02;34.54;101568.00;4880705;29;45283;-90
2023/07/09 14:40:49;;;;;;;;;8.33;7.67;;;;;34.02;34.67;101572.56;4880166;29;45393;-91
2023/07/09 14:43:14;;;;;;;;;5.33;5.33;;;;;34.02;34.23;101567.16;4881809;29;45550;-90
2023/07/09 14:45:40;;;;;;;;;9.00;8.67;;;;;33.95;34.25;101558.97;4878148;29;45775;-94
2023/07/09 14:48:15;;;;;;;;;8.00;7.67;;;;;34.01;34.36;101570.88;4879944;29;45496;-93
2023/07/09 14:51:18;;;;;;;;;6.00;6.00;;;;;33.89;34.46;101574.09;4880952;29;45422;-94
2023/07/09 14:53:44;;;;;;;;;8.00;8.00;;;;;33.81;34.23;101579.59;4811706;29;45560;-94
2023/07/09 14:56:14;;;;;;;;;8.33;7.67;;;;;33.71;34.05;101575.34;4825565;29;45457;-93
2023/07/09 14:58:39;;;;;;;;;5.75;5.75;;;;;33.53;33.73;101570.34;4812218;29;45743;-94
2023/07/09 15:01:09;;;;;;;;;8.00;8.00;;;;;33.47;33.89;101584.56;4827262;29;45427;-94
2023/07/09 15:03:35;;;;;;;;;8.25;7.25;;;;;33.28;34.48;101572.50;4824941;29;45428;-94
2023/07/09 15:06:02;;;;;;;;;8.00;8.00;;;;;33.25;34.55;101572.84;4841623;29;45393;-94
2023/07/09 15:08:28;;;;;;;;;8.25;7.00;;;;;33.20;34.29;101586.91;4825270;29;47190;-93
2023/07/09 15:10:58;;;;;;;;;7.25;6.75;;;;;33.13;34.71;101577.91;4834797;29;45491;-93
2023/07/09 15:13:36;;;;;;;;;6.67;6.67;;;;;32.99;34.43;101558.00;4817959;29;45501;-93
2023/07/09 15:16:04;;;;;;;;;8.00;7.50;;;;;33.00;34.52;101565.88;4831255;29;45352;-93
2023/07/09 15:18:51;;;;;;;;;9.33;7.67;;;;;32.90;34.46;101562.63;4843746;29;46328;-93
2023/07/09 15:21:25;;;;;;;;;7.00;7.00;;;;;32.77;34.62;101561.38;4795957;29;45670;-93
2023/07/09 15:23:52;;;;;;;;;8.00;7.50;;;;;32.78;34.88;101560.34;4795800;29;45503;-92
2023/07/09 15:26:17;;;;;;;;;7.00;6.25;;;;;32.79;34.98;101562.03;4824335;29;45714;-93
2023/07/09 15:28:43;;;;;;;;;7.00;7.00;;;;;32.76;34.89;101557.00;4824363;29;46002;-94
2023/07/09 15:31:11;;;;;;;;;7.33;7.33;;;;;32.74;34.63;101563.59;4824907;29;45395;-94
2023/07/09 15:33:38;;;;;;;;;6.00;6.00;;;;;32.73;35.25;101559.25;4825355;29;45395;-92
2023/07/09 15:36:11;;;;;;;;;7.00;6.50;;;;;32.61;35.30;101564.22;4825347;29;45392;-94
2023/07/09 15:38:40;;;;;;;;;5.75;5.75;;;;;32.67;35.49;101574.25;4839313;29;45630;-94
2023/07/09 15:41:12;;;;;;;;;5.33;4.67;;;;;32.65;35.06;101574.47;4826755;29;45411;-94
2023/07/09 15:43:38;;;;;;;;;5.00;5.00;;;;;32.50;35.17;101555.56;4815123;29;45745;-95
2023/07/09 15:46:03;;;;;;;;;7.67;6.00;;;;;32.49;35.38;101561.97;4842111;29;45702;-94
2023/07/09 15:48:35;;;;;;;;;8.33;8.00;;;;;32.37;35.29;101561.53;4823796;29;45664;-94
2023/07/09 15:51:04;;;;;;;;;7.00;7.00;;;;;32.25;35.48;101550.34;4826388;29;45479;-95
2023/07/09 15:53:30;;;;;;;;;7.33;6.67;;;;;32.22;35.63;101556.09;4883224;29;45430;-94
2023/07/09 15:56:04;;;;;;;;;5.33;5.33;;;;;32.05;35.50;101536.53;4880032;29;45638;-94
2023/07/09 15:58:39;;;;;;;;;7.33;6.00;;;;;32.08;35.72;101546.94;4874446;29;47240;-94
2023/07/09 16:01:06;;;;;;;;;7.00;6.33;;;;;32.02;35.58;101544.97;4862099;29;45763;-93
2023/07/09 16:03:31;;;;;;;;;7.33;6.33;;;;;32.07;35.47;101565.97;4876857;29;45581;-93
2023/07/09 20:49:38;;;;;;;;;2.50;2.50;;;;;25.05;50.41;101789.19;2519986;23;46267;31
2023/07/09 20:52:05;;;;;;;;;3.33;3.00;;;;;24.78;50.60;101765.63;4807204;29;45480;-92
2023/07/09 20:54:31;;;;;;;;;4.00;3.00;;;;;24.86;51.05;101784.53;4799607;29;45846;-91
2023/07/09 20:56:59;;;;;;;;;2.00;2.00;;;;;24.53;51.15;101741.84;4790459;29;45912;-91
2023/07/09 20:59:26;;;;;;;;;4.00;4.00;;;;;24.73;51.42;101791.78;4821123;29;44810;-92
2023/07/09 21:01:52;;;;;;;;;3.67;3.67;;;;;24.65;51.71;101789.72;4809390;29;45351;-92
2023/07/09 21:04:19;;;;;;;;;3.00;3.00;;;;;24.36;51.40;101755.66;4795067;29;45691;-91
2023/07/09 21:06:49;;;;;;;;;2.00;2.00;;;;;24.45;51.56;101789.50;4786427;29;46778;-91
2023/07/09 21:09:31;;;;;;;;;4.00;3.00;;;;;24.19;52.33;101765.78;4803112;29;45486;-92
2023/07/09 21:11:57;;;;;;;;;4.33;2.67;;;;;24.37;52.21;101800.75;4823344;29;45548;-91
2023/07/09 21:14:23;;;;;;;;;3.67;2.33;;;;;24.19;52.47;101771.09;4814031;29;45686;-91
2023/07/09 21:16:51;;;;;;;;;2.67;2.67;;;;;24.24;52.89;101789.34;4808014;29;46973;-91
2023/07/09 21:19:21;;;;;;;;;2.33;2.33;;;;;24.24;52.96;101794.66;4793076;29;45343;-91
2023/07/09 21:21:47;;;;;;;;;5.00;4.00;;;;;24.15;53.09;101789.13;4808637;29;45399;-90
2023/07/09 21:24:36;;;;;;;;;3.00;3.00;;;;;24.17;53.13;101788.16;4793214;29;45341;-91
2023/07/09 21:27:05;;;;;;;;;3.33;3.00;;;;;24.06;53.17;101787.13;4808089;29;46579;-90
2023/07/09 21:29:31;;;;;;;;;3.67;2.00;;;;;24.02;53.15;101788.31;4808543;29;45446;-92
2023/07/09 21:32:01;;;;;;;;;4.00;2.33;;;;;23.97;53.11;101796.66;4790709;29;45453;-91
2023/07/09 21:34:29;;;;;;;;;2.00;2.00;;;;;23.91;52.66;101791.81;4815794;29;45558;-91
2023/07/09 21:36:58;;;;;;;;;2.67;2.67;;;;;23.87;52.74;101800.97;4792795;29;46660;-92
2023/07/09 21:39:31;;;;;;;;;2.00;2.00;;;;;23.84;52.94;101806.56;4795726;29;45395;-91
2023/07/09 21:41:57;;;;;;;;;3.00;3.00;;;;;23.78;53.04;101807.84;4808347;29;45267;-91
2023/07/09 21:44:25;;;;;;;;;2.33;2.33;;;;;23.62;53.31;101800.19;4796746;29;45538;-90
2023/07/09 21:46:56;;;;;;;;;3.00;1.00;;;;;23.66;52.84;101812.31;4792365;29;47655;-91
2023/07/09 21:49:27;;;;;;;;;1.33;1.33;;;;;23.64;52.69;101830.16;4792780;29;45812;-91
2023/07/09 21:51:52;;;;;;;;;4.00;2.67;;;;;23.45;52.73;101812.94;4793174;29;45721;-91
2023/07/09 21:54:21;;;;;;;;;3.00;3.00;;;;;23.55;53.32;101833.50;4806742;29;45677;-91
2023/07/09 21:56:47;;;;;;;;;3.33;2.67;;;;;23.43;52.88;101821.97;4807803;29;47320;-92
2023/07/09 21:59:12;;;;;;;;;3.67;3.67;;;;;23.47;53.09;101832.25;4793092;29;45366;-92
2023/07/09 22:01:37;;;;;;;;;5.33;2.33;;;;;23.30;53.29;101814.88;4793494;29;45459;-92
2023/07/09 22:04:33;;;;;;;;;2.00;2.00;;;;;23.41;53.72;101840.66;4806029;29;45896;-91
2023/07/09 22:07:00;;;;;;;;;3.33;3.33;;;;;23.40;53.81;101841.63;4809987;29;45933;-91
2023/07/09 22:09:26;;;;;;;;;7.33;3.00;;;;;23.30;53.82;101827.31;4804553;29;45442;-91
2023/07/09 22:11:54;;;;;;;;;2.00;2.00;;;;;23.22;53.84;101815.44;4788509;29;45328;-92
2023/07/09 22:14:24;;;;;;;;;3.33;2.67;;;;;23.35;53.32;101846.44;4793710;29;45316;-91
2023/07/09 22:16:51;;;;;;;;;1.33;1.33;;;;;23.32;53.73;101841.34;4807349;29;45833;-92
2023/07/09 22:19:19;;;;;;;;;3.00;2.67;;;;;23.28;53.55;101840.69;4793351;29;45325;-91
2023/07/09 22:21:44;;;;;;;;;3.67;3.67;;;;;23.20;53.51;101825.31;4792398;29;45541;-92
2023/07/09 22:24:28;;;;;;;;;3.33;3.00;;;;;23.22;53.65;101833.16;4808613;29;45774;-91
2023/07/09 22:26:53;;;;;;;;;3.67;3.33;;;;;23.12;53.92;101819.72;4791073;29;45301;-92
2023/07/09 22:29:19;;;;;;;;;3.33;3.33;;;;;23.07;53.93;101821.88;4805588;29;45216;-91
2023/07/09 22:31:44;;;;;;;;;4.33;3.33;;;;;23.04;54.25;101827.38;4791340;29;45322;-93
2023/07/09 22:34:28;;;;;;;;;5.67;4.00;;;;;23.11;54.04;101847.25;4804767;29;45062;-91
2023/07/09 22:36:53;;;;;;;;;3.33;3.33;;;;;23.07;54.07;101846.63;4807183;29;46354;-91
2023/07/09 22:39:19;;;;;;;;;2.67;2.67;;;;;22.89;54.08;101824.03;4808424;29;45433;-91
2023/07/09 22:41:45;;;;;;;;;3.00;3.00;;;;;23.00;54.20;101848.00;4792973;29;45472;-91
2023/07/09 22:44:13;;;;;;;;;6.67;4.00;;;;;22.92;54.11;101843.22;4799694;29;45651;-91
2023/07/09 22:46:39;;;;;;;;;5.00;4.00;;;;;22.80;54.52;101826.41;4798359;29;46978;-91
2023/07/09 22:49:08;;;;;;;;;4.00;4.00;;;;;22.82;54.64;101828.94;4795128;29;45410;-91
2023/07/09 22:51:35;;;;;;;;;4.00;3.33;;;;;22.87;55.04;101842.72;4792498;29;45324;-92
2023/07/09 22:54:02;;;;;;;;;7.33;4.33;;;;;22.71;54.82;101826.22;4790743;29;45541;-92
2023/07/09 22:56:27;;;;;;;;;5.33;5.00;;;;;22.74;55.10;101842.75;4821580;29;46954;-92
